Glen Cove, Washington
Current Conditions -  °F | °C
As of 6:56 AM on Tuesday 21 Oct 2014 (Local Time) from KNUW Reporting Station
Light Rain Light Rain  
Wind Chill: 57°   Ceiling: 1500
Heat Index: 57°   Visibility: 10mi
Dew Point: 52°   Wind: 16mph
Humidity: 83%   Direction: 150°SSE
Pressure: 29.82"   Gusts: NA
Location:  48.026°N, 122.859°W
Report Text: KNUW 211356Z 15014KT 10SM -RA FEW009 BKN015 OVC070 14/11 A2982 RMK AO2 RAB22 SLP103 P0001 T01390111 $
Loading
Personal Weather Stations






























Interactive Weather Map
Tropical Storm Tracking
New forecast layout! Learn more

10-Day Weather Forecast

Advertisements
Track Severe Weather on mobile